sensor_id;sensor_type;location;lat;lon;timestamp;pressure;altitude;pressure_sealevel;temperature;humidity
13705;BME280;6924;52.122;9.952;2023-05-14T00:00:50;100928.53;;;11.00;80.96
13705;BME280;6924;52.122;9.952;2023-05-14T00:03:16;100926.03;;;10.98;81.00
13705;BME280;6924;52.122;9.952;2023-05-14T00:05:42;100923.50;;;10.96;80.98
13705;BME280;6924;52.122;9.952;2023-05-14T00:08:09;100931.72;;;10.79;81.49
13705;BME280;6924;52.122;9.952;2023-05-14T00:10:35;100928.72;;;10.70;81.28
13705;BME280;6924;52.122;9.952;2023-05-14T00:13:02;100932.25;;;10.62;81.63
13705;BME280;6924;52.122;9.952;2023-05-14T00:15:28;100934.72;;;10.50;82.20
13705;BME280;6924;52.122;9.952;2023-05-14T00:17:56;100935.53;;;10.50;82.74
13705;BME280;6924;52.122;9.952;2023-05-14T00:20:23;100940.41;;;10.45;82.93
13705;BME280;6924;52.122;9.952;2023-05-14T00:22:49;100935.22;;;10.33;83.42
13705;BME280;6924;52.122;9.952;2023-05-14T00:25:15;100930.19;;;10.30;83.97
13705;BME280;6924;52.122;9.952;2023-05-14T00:27:42;100929.47;;;10.19;84.37
13705;BME280;6924;52.122;9.952;2023-05-14T00:30:09;100923.25;;;10.17;84.60
13705;BME280;6924;52.122;9.952;2023-05-14T00:32:35;100925.00;;;10.13;84.61
13705;BME280;6924;52.122;9.952;2023-05-14T00:35:04;100928.50;;;10.05;85.08
13705;BME280;6924;52.122;9.952;2023-05-14T00:37:30;100915.75;;;10.07;85.38
13705;BME280;6924;52.122;9.952;2023-05-14T00:39:57;100924.09;;;10.18;84.95
13705;BME280;6924;52.122;9.952;2023-05-14T00:42:23;100922.19;;;10.13;85.15
13705;BME280;6924;52.122;9.952;2023-05-14T00:44:50;100916.59;;;10.08;85.72
13705;BME280;6924;52.122;9.952;2023-05-14T00:47:17;100916.00;;;10.11;85.75
13705;BME280;6924;52.122;9.952;2023-05-14T00:49:44;100914.38;;;10.05;85.38
13705;BME280;6924;52.122;9.952;2023-05-14T00:52:12;100910.53;;;9.96;85.56
13705;BME280;6924;52.122;9.952;2023-05-14T00:54:39;100915.94;;;9.92;86.13
13705;BME280;6924;52.122;9.952;2023-05-14T00:57:05;100912.25;;;9.97;85.84
13705;BME280;6924;52.122;9.952;2023-05-14T00:59:32;100914.38;;;10.05;85.55
13705;BME280;6924;52.122;9.952;2023-05-14T01:01:58;100916.59;;;10.08;85.71
13705;BME280;6924;52.122;9.952;2023-05-14T01:04:25;100918.81;;;10.11;84.50
13705;BME280;6924;52.122;9.952;2023-05-14T01:06:58;100913.47;;;10.09;84.14
13705;BME280;6924;52.122;9.952;2023-05-14T01:09:35;100916.28;;;10.09;83.90
13705;BME280;6924;52.122;9.952;2023-05-14T01:12:07;100917.38;;;9.89;84.83
13705;BME280;6924;52.122;9.952;2023-05-14T01:14:41;100921.59;;;9.92;84.45
13705;BME280;6924;52.122;9.952;2023-05-14T01:17:11;100922.41;;;9.73;84.42
13705;BME280;6924;52.122;9.952;2023-05-14T01:19:39;100913.53;;;9.61;84.18
13705;BME280;6924;52.122;9.952;2023-05-14T01:22:07;100925.09;;;9.36;86.39
13705;BME280;6924;52.122;9.952;2023-05-14T01:24:34;100922.06;;;9.27;86.81
13705;BME280;6924;52.122;9.952;2023-05-14T01:27:05;100927.66;;;9.32;87.41
13705;BME280;6924;52.122;9.952;2023-05-14T01:29:33;100917.44;;;9.36;87.43
13705;BME280;6924;52.122;9.952;2023-05-14T01:32:04;100918.19;;;9.47;86.82
13705;BME280;6924;52.122;9.952;2023-05-14T01:34:32;100917.28;;;9.51;87.05
13705;BME280;6924;52.122;9.952;2023-05-14T01:37:00;100917.22;;;9.57;86.36
13705;BME280;6924;52.122;9.952;2023-05-14T01:39:30;100914.94;;;9.59;86.35
13705;BME280;6924;52.122;9.952;2023-05-14T01:41:57;100909.81;;;9.61;86.30
13705;BME280;6924;52.122;9.952;2023-05-14T01:44:25;100911.91;;;9.50;85.81
13705;BME280;6924;52.122;9.952;2023-05-14T01:46:51;100908.34;;;9.44;85.73
13705;BME280;6924;52.122;9.952;2023-05-14T01:49:18;100914.28;;;9.43;85.88
13705;BME280;6924;52.122;9.952;2023-05-14T01:51:44;100906.34;;;9.45;86.50
13705;BME280;6924;52.122;9.952;2023-05-14T01:54:10;100906.63;;;9.43;86.42
13705;BME280;6924;52.122;9.952;2023-05-14T01:56:38;100911.44;;;9.43;86.63
13705;BME280;6924;52.122;9.952;2023-05-14T01:59:04;100908.03;;;9.46;87.07
13705;BME280;6924;52.122;9.952;2023-05-14T02:01:31;100902.06;;;9.47;86.23
13705;BME280;6924;52.122;9.952;2023-05-14T02:03:58;100906.28;;;9.50;86.49
13705;BME280;6924;52.122;9.952;2023-05-14T02:06:25;100905.44;;;9.49;86.70
13705;BME280;6924;52.122;9.952;2023-05-14T02:08:51;100895.88;;;9.45;86.32
13705;BME280;6924;52.122;9.952;2023-05-14T02:11:18;100894.31;;;9.34;86.55
13705;BME280;6924;52.122;9.952;2023-05-14T02:13:45;100894.19;;;9.20;86.50
13705;BME280;6924;52.122;9.952;2023-05-14T02:16:12;100890.75;;;9.23;86.54
13705;BME280;6924;52.122;9.952;2023-05-14T02:18:38;100900.59;;;9.26;87.04
13705;BME280;6924;52.122;9.952;2023-05-14T02:21:05;100902.72;;;9.15;86.74
13705;BME280;6924;52.122;9.952;2023-05-14T02:23:31;100897.91;;;9.16;86.71
13705;BME280;6924;52.122;9.952;2023-05-14T02:25:58;100892.25;;;9.16;87.03
13705;BME280;6924;52.122;9.952;2023-05-14T02:28:24;100894.34;;;9.05;86.56
13705;BME280;6924;52.122;9.952;2023-05-14T02:30:57;100897.00;;;8.91;87.56
13705;BME280;6924;52.122;9.952;2023-05-14T02:33:23;100897.00;;;8.91;87.82
13705;BME280;6924;52.122;9.952;2023-05-14T02:35:50;100889.31;;;8.97;87.73
13705;BME280;6924;52.122;9.952;2023-05-14T02:38:16;100887.09;;;8.94;87.71
13705;BME280;6924;52.122;9.952;2023-05-14T02:40:43;100884.34;;;8.88;87.19
13705;BME280;6924;52.122;9.952;2023-05-14T02:43:09;100888.78;;;8.95;87.55
13705;BME280;6924;52.122;9.952;2023-05-14T02:45:36;100890.81;;;8.89;87.64
13705;BME280;6924;52.122;9.952;2023-05-14T02:48:04;100886.84;;;8.90;88.15
13705;BME280;6924;52.122;9.952;2023-05-14T02:50:30;100892.50;;;8.90;87.87
13705;BME280;6924;52.122;9.952;2023-05-14T02:52:56;100890.75;;;8.94;88.28
13705;BME280;6924;52.122;9.952;2023-05-14T02:55:23;100892.75;;;8.94;88.07
13705;BME280;6924;52.122;9.952;2023-05-14T02:57:50;100890.56;;;8.85;87.90
13705;BME280;6924;52.122;9.952;2023-05-14T03:00:17;100890.28;;;8.82;87.30
13705;BME280;6924;52.122;9.952;2023-05-14T03:02:44;100894.00;;;8.77;87.59
13705;BME280;6924;52.122;9.952;2023-05-14T03:05:12;100888.41;;;8.72;88.41
13705;BME280;6924;52.122;9.952;2023-05-14T03:07:38;100884.59;;;8.58;89.31
13705;BME280;6924;52.122;9.952;2023-05-14T03:10:05;100898.22;;;8.45;89.52
13705;BME280;6924;52.122;9.952;2023-05-14T03:12:32;100889.78;;;8.40;90.00
13705;BME280;6924;52.122;9.952;2023-05-14T03:14:58;100886.41;;;8.38;90.08
13705;BME280;6924;52.122;9.952;2023-05-14T03:17:25;100885.53;;;8.43;90.51
13705;BME280;6924;52.122;9.952;2023-05-14T03:19:51;100887.50;;;8.37;90.62
13705;BME280;6924;52.122;9.952;2023-05-14T03:22:19;100881.88;;;8.37;90.81
13705;BME280;6924;52.122;9.952;2023-05-14T03:24:46;100891.19;;;8.43;91.22
13705;BME280;6924;52.122;9.952;2023-05-14T03:27:12;100876.75;;;8.50;90.08
13705;BME280;6924;52.122;9.952;2023-05-14T03:29:38;100884.38;;;8.49;90.77
13705;BME280;6924;52.122;9.952;2023-05-14T03:32:05;100891.41;;;8.46;89.94
13705;BME280;6924;52.122;9.952;2023-05-14T03:34:32;100888.31;;;8.48;90.82
13705;BME280;6924;52.122;9.952;2023-05-14T03:36:58;100893.94;;;8.48;89.56
13705;BME280;6924;52.122;9.952;2023-05-14T03:39:26;100887.50;;;8.37;90.11
13705;BME280;6924;52.122;9.952;2023-05-14T03:41:52;100888.38;;;8.38;89.80
13705;BME280;6924;52.122;9.952;2023-05-14T03:44:21;100881.28;;;8.45;89.47
13705;BME280;6924;52.122;9.952;2023-05-14T03:46:47;100883.22;;;8.50;89.28
13705;BME280;6924;52.122;9.952;2023-05-14T03:49:14;100874.16;;;8.53;89.96
13705;BME280;6924;52.122;9.952;2023-05-14T03:51:40;100873.44;;;8.42;89.16
13705;BME280;6924;52.122;9.952;2023-05-14T03:54:07;100876.59;;;8.25;90.61
13705;BME280;6924;52.122;9.952;2023-05-14T03:56:34;100873.19;;;8.34;90.36
13705;BME280;6924;52.122;9.952;2023-05-14T03:59:01;100876.53;;;8.41;89.82
13705;BME280;6924;52.122;9.952;2023-05-14T04:01:27;100874.81;;;8.45;89.93
13705;BME280;6924;52.122;9.952;2023-05-14T04:03:54;100870.28;;;8.49;89.32
13705;BME280;6924;52.122;9.952;2023-05-14T04:06:20;100873.34;;;8.53;89.12
13705;BME280;6924;52.122;9.952;2023-05-14T04:08:46;100865.16;;;8.56;89.30
13705;BME280;6924;52.122;9.952;2023-05-14T04:11:13;100872.16;;;8.59;89.41
13705;BME280;6924;52.122;9.952;2023-05-14T04:13:40;100861.44;;;8.61;89.29
13705;BME280;6924;52.122;9.952;2023-05-14T04:16:07;100864.25;;;8.61;89.29
13705;BME280;6924;52.122;9.952;2023-05-14T04:18:33;100874.94;;;8.64;89.11
13705;BME280;6924;52.122;9.952;2023-05-14T04:21:00;100866.75;;;8.67;89.05
13705;BME280;6924;52.122;9.952;2023-05-14T04:23:26;100868.97;;;8.71;89.56
13705;BME280;6924;52.122;9.952;2023-05-14T04:25:53;100874.59;;;8.71;89.67
13705;BME280;6924;52.122;9.952;2023-05-14T04:28:19;100874.56;;;8.76;90.23
13705;BME280;6924;52.122;9.952;2023-05-14T04:30:48;100868.38;;;8.74;90.76
13705;BME280;6924;52.122;9.952;2023-05-14T04:33:14;100868.13;;;8.70;90.50
13705;BME280;6924;52.122;9.952;2023-05-14T04:35:42;100869.56;;;8.67;91.54
13705;BME280;6924;52.122;9.952;2023-05-14T04:38:09;100863.66;;;8.64;91.60
13705;BME280;6924;52.122;9.952;2023-05-14T04:40:35;100860.56;;;8.65;91.79
13705;BME280;6924;52.122;9.952;2023-05-14T04:43:02;100863.63;;;8.69;92.05
13705;BME280;6924;52.122;9.952;2023-05-14T04:45:28;100864.47;;;8.69;91.97
13705;BME280;6924;52.122;9.952;2023-05-14T04:47:56;100868.06;;;8.75;91.86
13705;BME280;6924;52.122;9.952;2023-05-14T04:50:23;100868.03;;;8.80;92.32
13705;BME280;6924;52.122;9.952;2023-05-14T04:52:49;100871.06;;;8.89;93.31
13705;BME280;6924;52.122;9.952;2023-05-14T04:55:16;100872.41;;;8.97;93.31
13705;BME280;6924;52.122;9.952;2023-05-14T04:57:42;100873.19;;;9.02;93.50
13705;BME280;6924;52.122;9.952;2023-05-14T05:00:10;100880.47;;;9.08;93.93
13705;BME280;6924;52.122;9.952;2023-05-14T05:02:37;100875.63;;;9.14;93.71
13705;BME280;6924;52.122;9.952;2023-05-14T05:05:05;100877.53;;;9.19;93.35
13705;BME280;6924;52.122;9.952;2023-05-14T05:07:31;100871.78;;;9.29;93.61
13705;BME280;6924;52.122;9.952;2023-05-14T05:09:58;100867.72;;;9.40;93.71
13705;BME280;6924;52.122;9.952;2023-05-14T05:12:24;100866.44;;;9.51;93.34
13705;BME280;6924;52.122;9.952;2023-05-14T05:14:54;100868.00;;;9.63;93.48
13705;BME280;6924;52.122;9.952;2023-05-14T05:17:20;100878.66;;;9.71;93.68
13705;BME280;6924;52.122;9.952;2023-05-14T05:19:47;100868.44;;;9.75;93.93
13705;BME280;6924;52.122;9.952;2023-05-14T05:22:14;100871.34;;;9.89;93.29
13705;BME280;6924;52.122;9.952;2023-05-14T05:24:41;100875.50;;;9.97;94.17
13705;BME280;6924;52.122;9.952;2023-05-14T05:27:07;100872.22;;;10.08;93.38
13705;BME280;6924;52.122;9.952;2023-05-14T05:29:34;100876.88;;;10.18;92.31
13705;BME280;6924;52.122;9.952;2023-05-14T05:32:00;100874.53;;;10.25;91.93
13705;BME280;6924;52.122;9.952;2023-05-14T05:34:27;100866.53;;;10.32;91.43
13705;BME280;6924;52.122;9.952;2023-05-14T05:36:53;100869.91;;;10.34;90.57
13705;BME280;6924;52.122;9.952;2023-05-14T05:39:21;100866.44;;;10.38;90.78
13705;BME280;6924;52.122;9.952;2023-05-14T05:41:47;100868.88;;;10.44;91.77
13705;BME280;6924;52.122;9.952;2023-05-14T05:44:14;100861.47;;;10.48;91.81
13705;BME280;6924;52.122;9.952;2023-05-14T05:46:40;100860.84;;;10.51;92.30
13705;BME280;6924;52.122;9.952;2023-05-14T05:49:07;100859.09;;;10.55;91.89
13705;BME280;6924;52.122;9.952;2023-05-14T05:51:33;100862.78;;;10.56;91.24
13705;BME280;6924;52.122;9.952;2023-05-14T05:53:59;100863.00;;;10.60;91.22
13705;BME280;6924;52.122;9.952;2023-05-14T05:56:27;100853.91;;;10.63;91.30
13705;BME280;6924;52.122;9.952;2023-05-14T05:58:54;100859.75;;;10.66;90.93
13705;BME280;6924;52.122;9.952;2023-05-14T06:01:20;100858.84;;;10.71;90.83
13705;BME280;6924;52.122;9.952;2023-05-14T06:03:46;100856.78;;;10.77;91.19
13705;BME280;6924;52.122;9.952;2023-05-14T06:06:13;100862.97;;;10.79;90.76
13705;BME280;6924;52.122;9.952;2023-05-14T06:08:39;100861.19;;;10.83;90.87
13705;BME280;6924;52.122;9.952;2023-05-14T06:11:06;100862.25;;;10.87;91.05
13705;BME280;6924;52.122;9.952;2023-05-14T06:13:34;100863.00;;;10.92;91.84
13705;BME280;6924;52.122;9.952;2023-05-14T06:16:00;100866.91;;;10.96;91.60
13705;BME280;6924;52.122;9.952;2023-05-14T06:18:26;100861.97;;;11.02;91.53
13705;BME280;6924;52.122;9.952;2023-05-14T06:20:53;100862.44;;;11.09;91.84
13705;BME280;6924;52.122;9.952;2023-05-14T06:23:20;100862.94;;;11.11;92.17
13705;BME280;6924;52.122;9.952;2023-05-14T06:25:48;100859.59;;;11.09;92.59
13705;BME280;6924;52.122;9.952;2023-05-14T06:28:15;100865.78;;;11.11;93.50
13705;BME280;6924;52.122;9.952;2023-05-14T06:30:42;100864.84;;;11.16;93.60
13705;BME280;6924;52.122;9.952;2023-05-14T06:33:09;100867.28;;;11.23;93.85
13705;BME280;6924;52.122;9.952;2023-05-14T06:35:37;100867.69;;;11.30;93.44
13705;BME280;6924;52.122;9.952;2023-05-14T06:38:05;100861.63;;;11.36;93.24
13705;BME280;6924;52.122;9.952;2023-05-14T06:40:32;100855.44;;;11.48;91.87
13705;BME280;6924;52.122;9.952;2023-05-14T06:42:58;100859.00;;;11.54;91.95
13705;BME280;6924;52.122;9.952;2023-05-14T06:45:24;100866.78;;;11.62;91.95
13705;BME280;6924;52.122;9.952;2023-05-14T06:47:52;100862.47;;;11.65;91.71
13705;BME280;6924;52.122;9.952;2023-05-14T06:50:18;100858.91;;;11.73;91.91
13705;BME280;6924;52.122;9.952;2023-05-14T06:52:45;100858.78;;;11.78;92.10
13705;BME280;6924;52.122;9.952;2023-05-14T06:55:11;100858.69;;;11.83;91.71
13705;BME280;6924;52.122;9.952;2023-05-14T06:57:38;100859.13;;;11.90;90.99
13705;BME280;6924;52.122;9.952;2023-05-14T07:00:05;100862.16;;;11.94;90.94
13705;BME280;6924;52.122;9.952;2023-05-14T07:02:32;100861.34;;;11.93;90.98
13705;BME280;6924;52.122;9.952;2023-05-14T07:05:00;100853.88;;;11.97;91.79
13705;BME280;6924;52.122;9.952;2023-05-14T07:07:26;100858.78;;;12.06;92.75
13705;BME280;6924;52.122;9.952;2023-05-14T07:09:53;100857.81;;;12.10;93.52
13705;BME280;6924;52.122;9.952;2023-05-14T07:12:19;100856.38;;;12.13;93.07
13705;BME280;6924;52.122;9.952;2023-05-14T07:14:45;100851.75;;;12.17;93.22
13705;BME280;6924;52.122;9.952;2023-05-14T07:17:12;100850.88;;;12.16;92.98
13705;BME280;6924;52.122;9.952;2023-05-14T07:19:38;100845.13;;;12.22;92.84
13705;BME280;6924;52.122;9.952;2023-05-14T07:22:06;100846.47;;;12.24;92.59
13705;BME280;6924;52.122;9.952;2023-05-14T07:24:32;100842.53;;;12.34;92.93
13705;BME280;6924;52.122;9.952;2023-05-14T07:27:00;100840.59;;;12.43;93.80
13705;BME280;6924;52.122;9.952;2023-05-14T07:29:27;100844.69;;;12.51;93.14
13705;BME280;6924;52.122;9.952;2023-05-14T07:31:54;100841.59;;;12.61;93.13
13705;BME280;6924;52.122;9.952;2023-05-14T07:34:20;100833.28;;;12.65;93.12
13705;BME280;6924;52.122;9.952;2023-05-14T07:36:47;100838.31;;;12.68;92.41
13705;BME280;6924;52.122;9.952;2023-05-14T07:39:15;100835.34;;;12.73;92.75
13705;BME280;6924;52.122;9.952;2023-05-14T07:41:41;100826.53;;;12.83;91.88
13705;BME280;6924;52.122;9.952;2023-05-14T07:44:08;100826.88;;;12.81;91.91
13705;BME280;6924;52.122;9.952;2023-05-14T07:46:35;100827.06;;;12.85;92.39
13705;BME280;6924;52.122;9.952;2023-05-14T07:49:01;100831.13;;;12.93;92.54
13705;BME280;6924;52.122;9.952;2023-05-14T07:51:28;100826.16;;;12.98;92.29
13705;BME280;6924;52.122;9.952;2023-05-14T07:53:54;100829.84;;;12.99;92.51
13705;BME280;6924;52.122;9.952;2023-05-14T07:56:22;100826.41;;;13.11;92.47
13705;BME280;6924;52.122;9.952;2023-05-14T07:58:49;100828.44;;;13.19;90.27
13705;BME280;6924;52.122;9.952;2023-05-14T08:01:16;100819.47;;;13.26;91.08
13705;BME280;6924;52.122;9.952;2023-05-14T08:03:42;100818.03;;;13.37;91.83
13705;BME280;6924;52.122;9.952;2023-05-14T08:06:09;100811.03;;;13.43;91.10
13705;BME280;6924;52.122;9.952;2023-05-14T08:08:36;100815.38;;;13.49;90.67
13705;BME280;6924;52.122;9.952;2023-05-14T08:11:02;100814.75;;;13.52;90.65
13705;BME280;6924;52.122;9.952;2023-05-14T08:13:30;100819.28;;;13.62;89.29
13705;BME280;6924;52.122;9.952;2023-05-14T08:15:57;100812.78;;;13.61;89.70
13705;BME280;6924;52.122;9.952;2023-05-14T08:18:23;100814.84;;;13.78;86.62
13705;BME280;6924;52.122;9.952;2023-05-14T08:20:50;100806.47;;;13.82;86.75
13705;BME280;6924;52.122;9.952;2023-05-14T08:23:17;100816.72;;;14.00;83.96
13705;BME280;6924;52.122;9.952;2023-05-14T08:25:43;100810.69;;;14.11;85.11
13705;BME280;6924;52.122;9.952;2023-05-14T08:28:10;100809.56;;;14.20;85.43
13705;BME280;6924;52.122;9.952;2023-05-14T08:30:37;100802.53;;;14.26;85.59
13705;BME280;6924;52.122;9.952;2023-05-14T08:33:04;100807.22;;;14.49;85.30
13705;BME280;6924;52.122;9.952;2023-05-14T08:35:30;100805.72;;;14.60;84.79
13705;BME280;6924;52.122;9.952;2023-05-14T08:37:57;100795.81;;;14.75;82.51
13705;BME280;6924;52.122;9.952;2023-05-14T08:40:23;100795.41;;;15.02;82.79
13705;BME280;6924;52.122;9.952;2023-05-14T08:42:50;100796.72;;;15.14;80.22
13705;BME280;6924;52.122;9.952;2023-05-14T08:45:18;100783.44;;;15.26;77.61
13705;BME280;6924;52.122;9.952;2023-05-14T08:47:48;100782.81;;;15.50;77.01
13705;BME280;6924;52.122;9.952;2023-05-14T08:50:16;100785.41;;;15.73;76.84
13705;BME280;6924;52.122;9.952;2023-05-14T08:52:43;100780.84;;;15.81;72.98
13705;BME280;6924;52.122;9.952;2023-05-14T08:55:11;100779.50;;;15.78;73.58
13705;BME280;6924;52.122;9.952;2023-05-14T08:57:38;100779.66;;;15.82;74.95
13705;BME280;6924;52.122;9.952;2023-05-14T09:00:05;100770.91;;;16.08;75.54
13705;BME280;6924;52.122;9.952;2023-05-14T09:02:36;100772.81;;;16.25;75.54
13705;BME280;6924;52.122;9.952;2023-05-14T09:05:06;100765.28;;;16.41;69.29
13705;BME280;6924;52.122;9.952;2023-05-14T09:07:34;100762.50;;;16.66;69.29
13705;BME280;6924;52.122;9.952;2023-05-14T09:10:01;100760.22;;;16.80;64.89
13705;BME280;6924;52.122;9.952;2023-05-14T09:12:28;100755.72;;;16.91;65.82
13705;BME280;6924;52.122;9.952;2023-05-14T09:14:56;100754.53;;;16.92;63.97
13705;BME280;6924;52.122;9.952;2023-05-14T09:17:24;100752.25;;;16.86;63.35
13705;BME280;6924;52.122;9.952;2023-05-14T09:19:51;100747.16;;;16.91;66.59
13705;BME280;6924;52.122;9.952;2023-05-14T09:22:19;100740.25;;;16.92;64.07
13705;BME280;6924;52.122;9.952;2023-05-14T09:25:00;100745.84;;;17.01;65.15
13705;BME280;6924;52.122;9.952;2023-05-14T09:27:29;100740.03;;;17.10;66.59
13705;BME280;6924;52.122;9.952;2023-05-14T09:30:03;100736.59;;;17.29;65.69
13705;BME280;6924;52.122;9.952;2023-05-14T09:32:34;100740.66;;;17.40;63.96
13705;BME280;6924;52.122;9.952;2023-05-14T09:35:08;100729.69;;;17.42;61.51
13705;BME280;6924;52.122;9.952;2023-05-14T09:37:36;100731.84;;;17.45;64.47
13705;BME280;6924;52.122;9.952;2023-05-14T09:40:05;100726.25;;;17.49;61.76
13705;BME280;6924;52.122;9.952;2023-05-14T09:42:33;100718.03;;;17.60;61.77
13705;BME280;6924;52.122;9.952;2023-05-14T09:44:59;100720.97;;;17.63;62.57
13705;BME280;6924;52.122;9.952;2023-05-14T09:47:25;100721.91;;;17.80;54.48
13705;BME280;6924;52.122;9.952;2023-05-14T09:49:52;100723.22;;;17.94;58.26
13705;BME280;6924;52.122;9.952;2023-05-14T09:52:18;100713.03;;;18.09;56.50
13705;BME280;6924;52.122;9.952;2023-05-14T09:54:46;100715.72;;;18.30;58.41
13705;BME280;6924;52.122;9.952;2023-05-14T09:57:13;100712.09;;;18.46;56.13
13705;BME280;6924;52.122;9.952;2023-05-14T09:59:39;100707.69;;;18.64;53.66
13705;BME280;6924;52.122;9.952;2023-05-14T10:02:15;100698.56;;;18.74;56.00
13705;BME280;6924;52.122;9.952;2023-05-14T10:04:42;100692.59;;;18.79;58.61
13705;BME280;6924;52.122;9.952;2023-05-14T10:07:09;100686.03;;;18.95;57.96
13705;BME280;6924;52.122;9.952;2023-05-14T10:09:37;100689.19;;;19.06;53.57
13705;BME280;6924;52.122;9.952;2023-05-14T10:12:08;100691.28;;;19.09;51.83
13705;BME280;6924;52.122;9.952;2023-05-14T10:14:37;100683.53;;;19.25;49.76
13705;BME280;6924;52.122;9.952;2023-05-14T10:17:06;100686.69;;;19.36;49.91
13705;BME280;6924;52.122;9.952;2023-05-14T10:19:42;100679.16;;;19.47;49.44
13705;BME280;6924;52.122;9.952;2023-05-14T10:22:14;100682.28;;;19.58;50.49
13705;BME280;6924;52.122;9.952;2023-05-14T10:24:43;100682.75;;;19.60;50.34
13705;BME280;6924;52.122;9.952;2023-05-14T10:27:11;100676.91;;;19.72;47.86
13705;BME280;6924;52.122;9.952;2023-05-14T10:29:38;100665.34;;;19.88;50.43
13705;BME280;6924;52.122;9.952;2023-05-14T10:32:05;100673.75;;;19.97;49.54
13705;BME280;6924;52.122;9.952;2023-05-14T10:34:36;100665.91;;;19.94;51.34
13705;BME280;6924;52.122;9.952;2023-05-14T10:37:06;100665.56;;;19.79;48.84
13705;BME280;6924;52.122;9.952;2023-05-14T10:39:44;100662.19;;;19.74;50.33
13705;BME280;6924;52.122;9.952;2023-05-14T10:42:15;100666.59;;;19.87;46.70
13705;BME280;6924;52.122;9.952;2023-05-14T10:44:47;100656.06;;;19.95;52.30
13705;BME280;6924;52.122;9.952;2023-05-14T10:47:14;100656.53;;;19.97;47.02
13705;BME280;6924;52.122;9.952;2023-05-14T10:49:42;100660.09;;;20.10;47.33
13705;BME280;6924;52.122;9.952;2023-05-14T10:52:09;100663.78;;;20.10;46.84
13705;BME280;6924;52.122;9.952;2023-05-14T10:54:36;100656.47;;;20.13;44.65
13705;BME280;6924;52.122;9.952;2023-05-14T10:57:03;100658.81;;;20.07;44.00
13705;BME280;6924;52.122;9.952;2023-05-14T10:59:32;100657.00;;;19.99;45.35
13705;BME280;6924;52.122;9.952;2023-05-14T11:01:59;100655.72;;;19.96;45.10
13705;BME280;6924;52.122;9.952;2023-05-14T11:04:26;100650.44;;;19.98;47.09
13705;BME280;6924;52.122;9.952;2023-05-14T11:06:53;100658.34;;;19.86;47.24
13705;BME280;6924;52.122;9.952;2023-05-14T11:09:21;100647.41;;;19.91;44.42
13705;BME280;6924;52.122;9.952;2023-05-14T11:11:49;100650.56;;;20.06;47.91
13705;BME280;6924;52.122;9.952;2023-05-14T11:14:15;100646.09;;;20.08;46.94
13705;BME280;6924;52.122;9.952;2023-05-14T11:16:43;100656.06;;;19.95;47.09
13705;BME280;6924;52.122;9.952;2023-05-14T11:19:10;100649.00;;;19.89;46.89
13705;BME280;6924;52.122;9.952;2023-05-14T11:21:37;100643.94;;;19.66;47.90
13705;BME280;6924;52.122;9.952;2023-05-14T11:24:04;100630.84;;;19.49;47.32
13705;BME280;6924;52.122;9.952;2023-05-14T11:26:31;100630.31;;;19.44;48.35
13705;BME280;6924;52.122;9.952;2023-05-14T11:28:58;100625.31;;;19.40;50.48
13705;BME280;6924;52.122;9.952;2023-05-14T11:31:25;100623.06;;;19.50;51.84
13705;BME280;6924;52.122;9.952;2023-05-14T11:33:53;100627.34;;;19.40;49.40
13705;BME280;6924;52.122;9.952;2023-05-14T11:36:19;100623.53;;;19.52;49.70
13705;BME280;6924;52.122;9.952;2023-05-14T11:38:46;100615.19;;;19.47;47.17
13705;BME280;6924;52.122;9.952;2023-05-14T11:41:14;100605.94;;;19.53;49.55
13705;BME280;6924;52.122;9.952;2023-05-14T11:43:41;100600.28;;;19.57;49.14
13705;BME280;6924;52.122;9.952;2023-05-14T11:46:15;100604.22;;;19.68;50.48
13705;BME280;6924;52.122;9.952;2023-05-14T11:48:42;100611.44;;;19.78;47.77
13705;BME280;6924;52.122;9.952;2023-05-14T11:51:09;100598.47;;;19.68;45.81
13705;BME280;6924;52.122;9.952;2023-05-14T11:53:36;100599.56;;;19.79;46.02
13705;BME280;6924;52.122;9.952;2023-05-14T11:56:03;100604.81;;;19.93;47.06
13705;BME280;6924;52.122;9.952;2023-05-14T11:58:31;100593.53;;;20.04;46.67
13705;BME280;6924;52.122;9.952;2023-05-14T12:00:58;100598.44;;;20.03;45.83
13705;BME280;6924;52.122;9.952;2023-05-14T12:03:24;100602.16;;;19.85;45.80
13705;BME280;6924;52.122;9.952;2023-05-14T12:05:54;100594.81;;;19.87;44.81
13705;BME280;6924;52.122;9.952;2023-05-14T12:08:25;100583.25;;;19.84;45.60
13705;BME280;6924;52.122;9.952;2023-05-14T12:10:51;100580.84;;;19.86;45.95
13705;BME280;6924;52.122;9.952;2023-05-14T12:13:18;100575.94;;;19.86;46.78
13705;BME280;6924;52.122;9.952;2023-05-14T12:15:45;100574.81;;;19.71;45.04
13705;BME280;6924;52.122;9.952;2023-05-14T12:18:12;100575.06;;;19.66;46.73
13705;BME280;6924;52.122;9.952;2023-05-14T12:20:38;100570.59;;;19.85;46.49
13705;BME280;6924;52.122;9.952;2023-05-14T12:23:08;100560.28;;;20.03;45.52
13705;BME280;6924;52.122;9.952;2023-05-14T12:25:38;100564.53;;;19.90;42.28
13705;BME280;6924;52.122;9.952;2023-05-14T12:28:12;100567.41;;;19.90;42.53
13705;BME280;6924;52.122;9.952;2023-05-14T12:30:39;100556.97;;;19.81;42.23
13705;BME280;6924;52.122;9.952;2023-05-14T12:33:06;100558.25;;;20.03;43.25
13705;BME280;6924;52.122;9.952;2023-05-14T12:35:32;100548.94;;;20.10;44.39
13705;BME280;6924;52.122;9.952;2023-05-14T12:38:00;100544.63;;;20.20;44.50
13705;BME280;6924;52.122;9.952;2023-05-14T12:40:27;100545.72;;;20.35;44.49
13705;BME280;6924;52.122;9.952;2023-05-14T12:42:57;100541.56;;;20.32;42.24
13705;BME280;6924;52.122;9.952;2023-05-14T12:45:23;100545.22;;;20.29;42.19
13705;BME280;6924;52.122;9.952;2023-05-14T12:47:50;100535.13;;;20.16;44.56
13705;BME280;6924;52.122;9.952;2023-05-14T12:50:16;100534.47;;;20.26;43.67
13705;BME280;6924;52.122;9.952;2023-05-14T12:52:42;100531.41;;;20.38;42.06
13705;BME280;6924;52.122;9.952;2023-05-14T12:55:10;100527.84;;;20.45;41.58
13705;BME280;6924;52.122;9.952;2023-05-14T12:57:37;100518.78;;;20.43;40.81
13705;BME280;6924;52.122;9.952;2023-05-14T13:00:06;100521.59;;;20.39;41.45
13705;BME280;6924;52.122;9.952;2023-05-14T13:02:34;100521.66;;;20.43;40.11
13705;BME280;6924;52.122;9.952;2023-05-14T13:05:01;100509.44;;;20.50;42.59